createdAt,value
2018-09-08T00:00:08.705Z,0
2018-09-08T00:00:49.177Z,0
2018-09-08T00:01:29.696Z,0
2018-09-08T00:02:10.195Z,0
2018-09-08T00:02:50.743Z,0
2018-09-08T00:03:31.199Z,0
2018-09-08T00:04:11.681Z,0
2018-09-08T00:04:52.135Z,0
2018-09-08T00:05:32.654Z,0
2018-09-08T00:06:13.150Z,0
2018-09-08T00:06:53.647Z,0
2018-09-08T00:07:34.156Z,0
2018-09-08T00:08:14.671Z,0
2018-09-08T00:08:55.152Z,0
2018-09-08T00:09:35.660Z,0
2018-09-08T00:10:16.149Z,0
2018-09-08T00:10:56.647Z,0
2018-09-08T00:11:37.144Z,0
2018-09-08T00:12:17.690Z,0
2018-09-08T00:12:58.202Z,0
2018-09-08T00:13:38.701Z,0
2018-09-08T00:14:19.220Z,0
2018-09-08T00:14:59.739Z,0
2018-09-08T00:15:40.277Z,0
2018-09-08T00:16:20.773Z,0
2018-09-08T00:17:01.286Z,0
2018-09-08T00:17:41.796Z,0
2018-09-08T00:18:22.284Z,0
2018-09-08T00:19:02.777Z,0
2018-09-08T00:19:43.293Z,0
2018-09-08T00:20:23.768Z,0
2018-09-08T00:21:04.253Z,0
2018-09-08T00:21:44.747Z,0
2018-09-08T00:22:25.292Z,0
2018-09-08T00:23:05.823Z,0
2018-09-08T00:23:46.417Z,0
2018-09-08T00:24:26.966Z,0
2018-09-08T00:25:07.518Z,0
2018-09-08T00:25:48.026Z,0
2018-09-08T00:26:28.504Z,0
2018-09-08T00:28:41.843Z,0
2018-09-08T00:29:22.326Z,0
2018-09-08T00:30:02.823Z,0
2018-09-08T00:30:43.359Z,0
2018-09-08T00:31:23.844Z,0
2018-09-08T00:32:04.387Z,0
2018-09-08T00:32:44.905Z,0
2018-09-08T00:33:25.463Z,0
2018-09-08T00:35:44.115Z,0
2018-09-08T00:36:24.679Z,0
2018-09-08T00:37:05.171Z,0
2018-09-08T00:37:45.700Z,0
2018-09-08T00:38:26.256Z,0
2018-09-08T00:39:06.712Z,0
2018-09-08T00:39:47.242Z,0
2018-09-08T00:40:27.776Z,0
2018-09-08T00:41:08.633Z,0
2018-09-08T00:41:49.138Z,0
2018-09-08T00:42:29.640Z,0
2018-09-08T00:43:10.162Z,0
2018-09-08T00:45:39.486Z,0
2018-09-08T00:46:19.969Z,0
2018-09-08T00:47:00.496Z,0
2018-09-08T00:47:41.039Z,0
2018-09-08T00:48:21.564Z,0
2018-09-08T00:49:02.104Z,0
2018-09-08T00:49:42.574Z,0
2018-09-08T00:50:23.100Z,0
2018-09-08T00:51:04.375Z,0
2018-09-08T00:51:44.938Z,0
2018-09-08T00:52:25.391Z,0
2018-09-08T00:53:05.885Z,0
2018-09-08T00:55:44.547Z,0
2018-09-08T00:56:25.044Z,0
2018-09-08T00:57:05.568Z,0
2018-09-08T00:59:18.837Z,0
2018-09-08T00:59:59.365Z,0
2018-09-08T01:00:39.883Z,0
2018-09-08T01:01:20.379Z,0
2018-09-08T01:02:00.899Z,0
2018-09-08T01:02:41.426Z,0
2018-09-08T01:03:21.911Z,0
2018-09-08T01:04:02.430Z,0
2018-09-08T01:04:42.967Z,0
2018-09-08T01:05:23.441Z,0
2018-09-08T01:06:03.998Z,0
2018-09-08T01:06:44.522Z,0
2018-09-08T01:07:24.987Z,0
2018-09-08T01:08:05.507Z,0
2018-09-08T01:08:46.032Z,0
2018-09-08T01:09:26.490Z,0
2018-09-08T01:10:06.986Z,0
2018-09-08T01:10:47.473Z,0
2018-09-08T01:11:28.087Z,0
2018-09-08T01:12:08.557Z,0
2018-09-08T01:12:49.093Z,0
2018-09-08T01:13:29.627Z,0
2018-09-08T01:14:10.100Z,0
2018-09-08T01:14:50.628Z,0
2018-09-08T01:15:31.077Z,0
2018-09-08T01:16:11.593Z,0
2018-09-08T01:16:52.078Z,0
2018-09-08T01:17:32.572Z,0
2018-09-08T01:18:13.107Z,0
2018-09-08T01:18:53.594Z,0
2018-09-08T01:19:34.126Z,0
2018-09-08T01:20:14.626Z,0
2018-09-08T01:20:55.085Z,0
2018-09-08T01:21:35.616Z,0
2018-09-08T01:22:16.098Z,0
2018-09-08T01:22:56.579Z,0
2018-09-08T01:23:37.115Z,0
2018-09-08T01:24:17.551Z,0
2018-09-08T01:24:58.068Z,0
2018-09-08T01:25:38.532Z,0
2018-09-08T01:26:19.044Z,0
2018-09-08T01:26:59.570Z,0
2018-09-08T01:27:40.073Z,0
2018-09-08T01:28:20.941Z,0
2018-09-08T01:29:01.182Z,0
2018-09-08T01:29:41.717Z,0
2018-09-08T01:30:22.289Z,0
2018-09-08T01:31:02.795Z,0
2018-09-08T01:31:43.280Z,0
2018-09-08T01:32:23.822Z,0
2018-09-08T01:33:04.332Z,0
2018-09-08T01:33:44.841Z,0
2018-09-08T01:34:25.376Z,0
2018-09-08T01:35:05.834Z,0
2018-09-08T01:35:46.314Z,0
2018-09-08T01:36:26.860Z,0
2018-09-08T01:37:07.289Z,0
2018-09-08T01:37:47.762Z,0
2018-09-08T01:38:28.281Z,0
2018-09-08T01:39:08.835Z,0
2018-09-08T01:39:49.314Z,0
2018-09-08T01:40:29.828Z,0
2018-09-08T01:41:10.314Z,0
2018-09-08T01:41:50.834Z,0
2018-09-08T01:42:31.305Z,0
2018-09-08T01:43:11.801Z,0
2018-09-08T01:43:52.334Z,0
2018-09-08T01:44:32.812Z,0
2018-09-08T01:45:13.312Z,0
2018-09-08T01:45:53.802Z,0
2018-09-08T01:46:34.364Z,0
2018-09-08T01:47:14.846Z,0
2018-09-08T01:47:55.330Z,0
2018-09-08T01:48:35.851Z,0
2018-09-08T01:49:16.406Z,0
2018-09-08T01:49:56.890Z,0
2018-09-08T01:50:37.461Z,0
2018-09-08T01:51:17.905Z,0
2018-09-08T01:51:58.419Z,0
2018-09-08T01:52:38.907Z,0
2018-09-08T01:53:19.406Z,0
2018-09-08T01:53:59.909Z,0
2018-09-08T01:54:40.419Z,0
2018-09-08T01:55:20.960Z,0
2018-09-08T01:56:01.465Z,0
2018-09-08T01:56:41.950Z,0
2018-09-08T01:57:22.414Z,0
2018-09-08T01:58:02.912Z,0
2018-09-08T01:58:43.428Z,0
2018-09-08T01:59:23.920Z,0
2018-09-08T02:00:04.405Z,0
2018-09-08T02:00:44.918Z,0
2018-09-08T02:01:25.404Z,0
2018-09-08T02:02:05.827Z,0
2018-09-08T02:02:46.361Z,0
2018-09-08T02:03:26.876Z,0
2018-09-08T02:04:07.366Z,0
2018-09-08T02:04:47.904Z,0
2018-09-08T02:05:28.389Z,0
2018-09-08T02:06:08.852Z,0
2018-09-08T02:06:49.330Z,0
2018-09-08T02:07:29.863Z,0
2018-09-08T02:08:10.373Z,0
2018-09-08T02:08:50.834Z,0
2018-09-08T02:09:31.332Z,0
2018-09-08T02:10:11.890Z,0
2018-09-08T02:10:52.312Z,0
2018-09-08T02:11:32.812Z,0
2018-09-08T02:12:13.284Z,0
2018-09-08T02:12:53.767Z,0
2018-09-08T02:13:34.249Z,0
2018-09-08T02:14:14.732Z,0
2018-09-08T02:14:55.267Z,0
2018-09-08T02:15:35.700Z,0
2018-09-08T02:16:16.236Z,0
2018-09-08T02:16:56.711Z,0
2018-09-08T02:17:37.165Z,0
2018-09-08T02:18:17.681Z,0
2018-09-08T02:18:58.181Z,0
2018-09-08T02:19:38.686Z,0
2018-09-08T02:20:19.129Z,0
2018-09-08T02:20:59.617Z,0
2018-09-08T02:21:40.137Z,0
2018-09-08T02:22:20.644Z,0
2018-09-08T02:23:01.069Z,0
2018-09-08T02:23:41.625Z,0
2018-09-08T02:24:22.087Z,0
2018-09-08T02:25:02.624Z,0
2018-09-08T02:25:43.143Z,0
2018-09-08T02:26:23.610Z,0
2018-09-08T02:27:04.145Z,0
2018-09-08T02:27:44.632Z,0
2018-09-08T02:28:25.765Z,0
2018-09-08T02:29:06.231Z,0
2018-09-08T02:29:46.751Z,0
2018-09-08T02:30:27.241Z,0
2018-09-08T02:31:07.748Z,0
2018-09-08T02:31:48.217Z,0
2018-09-08T02:32:28.709Z,0
2018-09-08T02:33:09.236Z,0
2018-09-08T02:33:49.751Z,0
2018-09-08T02:34:30.234Z,0
2018-09-08T02:35:10.809Z,0
2018-09-08T02:35:51.336Z,0
2018-09-08T02:36:31.819Z,0
2018-09-08T02:37:12.307Z,0
2018-09-08T02:37:52.792Z,0
2018-09-08T02:38:33.267Z,0
2018-09-08T02:39:13.852Z,0
2018-09-08T02:39:54.306Z,0
2018-09-08T02:40:34.785Z,0
2018-09-08T02:41:15.252Z,0
2018-09-08T02:41:55.761Z,0
2018-09-08T02:42:36.249Z,0
2018-09-08T02:43:16.718Z,0
2018-09-08T02:43:57.220Z,0
2018-09-08T02:44:37.719Z,0
2018-09-08T02:45:18.201Z,0
2018-09-08T02:45:58.717Z,0
2018-09-08T02:46:39.168Z,0
2018-09-08T02:47:19.662Z,0
2018-09-08T02:48:00.152Z,0
2018-09-08T02:48:40.638Z,0
2018-09-08T02:49:21.168Z,0
2018-09-08T02:50:01.616Z,0
2018-09-08T02:50:42.144Z,0
2018-09-08T02:51:22.608Z,0
2018-09-08T02:52:03.076Z,0
2018-09-08T02:52:43.590Z,0
2018-09-08T02:53:24.034Z,0
2018-09-08T02:54:04.513Z,0
2018-09-08T02:54:45.055Z,0
2018-09-08T02:55:25.540Z,0
2018-09-08T02:56:06.023Z,0
2018-09-08T02:56:46.539Z,0
2018-09-08T02:57:27.031Z,0
2018-09-08T02:58:07.465Z,0
2018-09-08T02:58:47.998Z,0
2018-09-08T02:59:28.574Z,0
2018-09-08T03:00:09.035Z,0
2018-09-08T03:00:49.559Z,0
2018-09-08T03:01:30.361Z,0
2018-09-08T03:02:10.880Z,0
2018-09-08T03:02:51.364Z,0
2018-09-08T03:03:31.836Z,0
2018-09-08T03:04:12.330Z,0
2018-09-08T03:04:52.799Z,0
2018-09-08T03:05:33.290Z,0
2018-09-08T03:06:13.749Z,0
2018-09-08T03:06:54.289Z,0
2018-09-08T03:07:34.878Z,0
2018-09-08T03:08:15.397Z,0
2018-09-08T03:08:55.848Z,0
2018-09-08T03:09:36.319Z,0
2018-09-08T03:10:16.846Z,0
2018-09-08T03:10:57.345Z,0
2018-09-08T03:11:37.839Z,0
2018-09-08T03:12:18.312Z,0
2018-09-08T03:12:58.911Z,0
2018-09-08T03:13:39.401Z,0
2018-09-08T03:14:19.850Z,0
2018-09-08T03:15:00.351Z,0
2018-09-08T03:15:40.869Z,0
2018-09-08T03:16:21.350Z,0
2018-09-08T03:17:01.859Z,0
2018-09-08T03:17:42.386Z,0
2018-09-08T03:18:22.896Z,0
2018-09-08T03:19:03.376Z,0
2018-09-08T03:19:43.899Z,0
2018-09-08T03:20:24.388Z,0
2018-09-08T03:21:04.892Z,0
2018-09-08T03:21:45.422Z,0
2018-09-08T03:22:26.139Z,0
2018-09-08T03:23:06.777Z,0
2018-09-08T03:23:47.185Z,0
2018-09-08T03:24:27.613Z,0
2018-09-08T03:25:08.100Z,0
2018-09-08T03:25:48.629Z,0
2018-09-08T03:26:29.099Z,0
2018-09-08T03:27:09.576Z,0
2018-09-08T03:27:50.023Z,0
2018-09-08T03:28:30.514Z,0
2018-09-08T03:29:11.002Z,0
2018-09-08T03:29:51.528Z,0
2018-09-08T03:30:32.002Z,0
2018-09-08T03:31:12.496Z,0
2018-09-08T03:31:53.021Z,0
2018-09-08T03:32:33.585Z,0
2018-09-08T03:33:14.023Z,0
2018-09-08T03:33:54.511Z,0
2018-09-08T03:34:34.969Z,0
2018-09-08T03:35:15.479Z,0
2018-09-08T03:35:56.000Z,0
2018-09-08T03:36:36.497Z,0
2018-09-08T03:37:17.018Z,0
2018-09-08T03:37:57.506Z,0
2018-09-08T03:38:37.989Z,0
2018-09-08T03:39:18.476Z,0
2018-09-08T03:39:58.936Z,0
2018-09-08T03:40:39.407Z,0
2018-09-08T03:41:19.923Z,0
2018-09-08T03:42:00.392Z,0
2018-09-08T03:42:40.857Z,0
2018-09-08T03:43:21.374Z,0
2018-09-08T03:44:01.888Z,0
2018-09-08T03:44:42.398Z,0
2018-09-08T03:45:22.895Z,0
2018-09-08T03:46:03.391Z,0
2018-09-08T03:46:43.850Z,0
2018-09-08T03:47:24.387Z,0
2018-09-08T03:48:04.896Z,0
2018-09-08T03:48:45.465Z,0
2018-09-08T03:49:25.952Z,0
2018-09-08T03:50:06.395Z,0
2018-09-08T03:50:46.866Z,0
2018-09-08T03:51:27.381Z,0
2018-09-08T03:52:07.909Z,0
2018-09-08T03:52:48.401Z,0
2018-09-08T03:53:28.863Z,0
2018-09-08T03:54:09.372Z,0
2018-09-08T03:54:49.861Z,0
2018-09-08T03:55:30.323Z,0
2018-09-08T03:56:10.820Z,0
2018-09-08T03:56:51.306Z,0
2018-09-08T03:57:31.874Z,0
2018-09-08T03:58:12.321Z,0
2018-09-08T03:58:52.847Z,0
2018-09-08T03:59:33.306Z,0
2018-09-08T04:00:13.766Z,0
2018-09-08T04:00:54.324Z,0
2018-09-08T04:01:34.775Z,0
2018-09-08T04:02:15.260Z,0
2018-09-08T04:02:55.844Z,0
2018-09-08T04:03:36.371Z,0
2018-09-08T04:04:16.878Z,0
2018-09-08T04:04:57.331Z,0
2018-09-08T04:05:37.843Z,0
2018-09-08T04:06:18.299Z,0
2018-09-08T04:06:58.766Z,0
2018-09-08T04:07:39.271Z,0
2018-09-08T04:08:19.781Z,0
2018-09-08T04:09:00.301Z,0
2018-09-08T04:09:40.789Z,0
2018-09-08T04:10:21.276Z,0
2018-09-08T04:11:01.723Z,0
2018-09-08T04:11:42.223Z,0
2018-09-08T04:12:22.717Z,0
2018-09-08T04:13:03.174Z,0
2018-09-08T04:13:43.658Z,0
2018-09-08T04:14:24.147Z,0
2018-09-08T04:15:04.651Z,0
2018-09-08T04:15:45.129Z,0
2018-09-08T04:16:25.615Z,0
2018-09-08T04:17:06.098Z,0
2018-09-08T04:17:46.625Z,0
2018-09-08T04:18:27.082Z,0
2018-09-08T04:19:07.602Z,0
2018-09-08T04:19:48.117Z,0
2018-09-08T04:20:28.590Z,0
2018-09-08T04:21:09.111Z,0
2018-09-08T04:21:49.565Z,0
2018-09-08T04:22:30.044Z,0
2018-09-08T04:23:10.534Z,0
2018-09-08T04:23:51.014Z,0
2018-09-08T04:24:31.557Z,0
2018-09-08T04:25:12.038Z,0
2018-09-08T04:25:52.533Z,0
2018-09-08T04:26:33.059Z,0
2018-09-08T04:27:13.519Z,0
2018-09-08T04:27:53.998Z,0
2018-09-08T04:28:34.509Z,0
2018-09-08T04:29:14.992Z,0
2018-09-08T04:29:55.571Z,0
2018-09-08T04:30:36.056Z,0
2018-09-08T04:31:16.534Z,0
2018-09-08T04:31:57.030Z,0
2018-09-08T04:32:37.502Z,0
2018-09-08T04:33:17.972Z,0
2018-09-08T04:33:58.491Z,0
2018-09-08T04:34:39.036Z,0
2018-09-08T04:35:19.433Z,0
2018-09-08T04:35:59.938Z,0
2018-09-08T04:36:40.402Z,0
2018-09-08T04:37:20.937Z,0
2018-09-08T04:38:01.395Z,0
2018-09-08T04:38:41.874Z,0
2018-09-08T04:39:22.374Z,0
2018-09-08T04:40:02.849Z,0
2018-09-08T04:40:43.334Z,0
2018-09-08T04:41:23.834Z,0
2018-09-08T04:42:04.291Z,0
2018-09-08T04:42:44.787Z,0
2018-09-08T04:43:25.280Z,0
2018-09-08T04:44:05.812Z,0
2018-09-08T04:44:46.295Z,0
2018-09-08T04:45:26.767Z,0
2018-09-08T04:46:07.299Z,0
2018-09-08T04:46:47.819Z,0
2018-09-08T04:47:28.250Z,0
2018-09-08T04:48:08.720Z,0
2018-09-08T04:48:49.233Z,5
2018-09-08T04:49:29.658Z,5
2018-09-08T04:50:10.175Z,5
2018-09-08T04:50:50.646Z,5
2018-09-08T04:51:31.167Z,5
2018-09-08T04:52:11.681Z,5
2018-09-08T04:52:52.451Z,5
2018-09-08T04:53:32.965Z,5
2018-09-08T04:54:13.424Z,5
2018-09-08T04:54:53.943Z,5
2018-09-08T04:55:34.465Z,5
2018-09-08T04:56:14.895Z,5
2018-09-08T04:56:55.390Z,5
2018-09-08T04:57:35.892Z,10
2018-09-08T04:58:16.381Z,10
2018-09-08T04:58:56.895Z,10
2018-09-08T04:59:38.238Z,10
2018-09-08T05:00:18.750Z,10
2018-09-08T05:00:59.289Z,10
2018-09-08T05:01:39.758Z,10
2018-09-08T05:02:20.432Z,10
2018-09-08T05:03:00.833Z,10
2018-09-08T05:03:41.309Z,15
2018-09-08T05:04:21.832Z,15
2018-09-08T05:05:02.357Z,15
2018-09-08T05:05:42.835Z,15
2018-09-08T05:06:23.322Z,15
2018-09-08T05:07:03.831Z,15
2018-09-08T05:07:44.293Z,15
2018-09-08T05:08:24.838Z,15
2018-09-08T05:09:05.319Z,20
2018-09-08T05:09:45.780Z,20
2018-09-08T05:10:26.285Z,20
2018-09-08T05:11:06.729Z,20
2018-09-08T05:11:47.225Z,20
2018-09-08T05:12:27.733Z,20
2018-09-08T05:13:08.215Z,20
2018-09-08T05:13:48.683Z,20
2018-09-08T05:14:29.177Z,25
2018-09-08T05:15:09.659Z,25
2018-09-08T05:15:50.181Z,25
2018-09-08T05:16:30.654Z,25
2018-09-08T05:17:11.142Z,25
2018-09-08T05:17:51.645Z,25
2018-09-08T05:18:32.148Z,25
2018-09-08T05:19:12.653Z,30
2018-09-08T05:19:53.168Z,30
2018-09-08T05:20:33.649Z,30
2018-09-08T05:21:14.110Z,30
2018-09-08T05:21:54.625Z,30
2018-09-08T05:22:35.109Z,30
2018-09-08T05:23:15.553Z,30
2018-09-08T05:23:56.045Z,30
2018-09-08T05:24:36.513Z,35
2018-09-08T05:25:16.991Z,35
2018-09-08T05:25:57.482Z,35
2018-09-08T05:26:37.954Z,35
2018-09-08T05:27:18.433Z,35
2018-09-08T05:27:58.887Z,35
2018-09-08T05:28:39.494Z,35
2018-09-08T05:29:19.884Z,35
2018-09-08T05:30:00.348Z,40
2018-09-08T05:30:40.897Z,40
2018-09-08T05:31:21.418Z,40
2018-09-08T05:32:01.891Z,40
2018-09-08T05:32:42.375Z,40
2018-09-08T05:33:22.839Z,40
2018-09-08T05:34:03.329Z,40
2018-09-08T05:34:43.860Z,40
2018-09-08T05:35:24.318Z,45
2018-09-08T05:36:04.860Z,45
2018-09-08T05:36:45.341Z,45
2018-09-08T05:37:25.818Z,45
2018-09-08T05:38:06.319Z,45
2018-09-08T05:38:46.772Z,45
2018-09-08T05:39:27.311Z,45
2018-09-08T05:40:07.814Z,45
2018-09-08T05:40:48.341Z,45
2018-09-08T05:41:28.833Z,50
2018-09-08T05:42:09.308Z,50
2018-09-08T05:42:49.841Z,50
2018-09-08T05:43:30.367Z,50
2018-09-08T05:44:10.927Z,50
2018-09-08T05:44:51.406Z,50
2018-09-08T05:45:31.882Z,50
2018-09-08T05:46:12.435Z,50
2018-09-08T05:46:53.189Z,50
2018-09-08T05:47:33.778Z,50
2018-09-08T05:48:14.312Z,55
2018-09-08T05:48:55.030Z,55
2018-09-08T05:49:35.481Z,55
2018-09-08T05:50:16.014Z,55
2018-09-08T05:50:56.489Z,55
2018-09-08T05:51:36.979Z,55
2018-09-08T05:52:17.578Z,55
2018-09-08T05:52:58.055Z,55
2018-09-08T05:53:38.573Z,55
2018-09-08T05:54:19.081Z,55
2018-09-08T05:54:59.538Z,60
2018-09-08T05:55:40.018Z,60
2018-09-08T05:56:20.543Z,60
2018-09-08T05:57:01.042Z,60
2018-09-08T05:57:42.257Z,60
2018-09-08T05:58:22.081Z,60
2018-09-08T05:59:02.619Z,60
2018-09-08T05:59:43.181Z,60
2018-09-08T06:00:23.617Z,60
2018-09-08T06:01:04.132Z,60
2018-09-08T06:01:44.724Z,60
2018-09-08T06:02:25.128Z,60
2018-09-08T06:04:58.688Z,65
2018-09-08T06:05:39.161Z,65
2018-09-08T06:06:19.642Z,65
2018-09-08T06:07:00.155Z,65
2018-09-08T06:07:40.658Z,65
2018-09-08T06:08:21.143Z,65
2018-09-08T06:09:01.655Z,65
2018-09-08T06:09:42.181Z,65
2018-09-08T06:10:22.705Z,65
2018-09-08T06:11:03.159Z,65
2018-09-08T06:11:43.674Z,65
2018-09-08T06:12:24.168Z,65
2018-09-08T06:13:04.708Z,65
2018-09-08T06:13:45.540Z,65
2018-09-08T06:14:26.774Z,65
2018-09-08T06:15:07.276Z,70
2018-09-08T06:15:47.858Z,70
2018-09-08T06:16:28.268Z,70
2018-09-08T06:17:08.824Z,70
2018-09-08T06:17:49.244Z,70
2018-09-08T06:18:29.789Z,70
2018-09-08T06:19:10.315Z,70
2018-09-08T06:19:50.792Z,70
2018-09-08T06:20:31.311Z,70
2018-09-08T06:21:11.883Z,75
2018-09-08T06:21:52.425Z,75
2018-09-08T06:22:33.701Z,75
2018-09-08T06:23:14.184Z,70
2018-09-08T06:23:54.693Z,75
2018-09-08T06:24:35.333Z,75
2018-09-08T06:25:15.728Z,75
2018-09-08T06:25:56.507Z,75
2018-09-08T06:26:36.956Z,75
2018-09-08T06:27:17.457Z,75
2018-09-08T06:29:51.047Z,75
2018-09-08T06:30:31.557Z,75
2018-09-08T06:31:12.070Z,75
2018-09-08T06:31:52.593Z,75
2018-09-08T06:32:33.068Z,75
2018-09-08T06:33:13.612Z,75
2018-09-08T06:33:54.112Z,75
2018-09-08T06:34:34.567Z,75
2018-09-08T06:35:15.122Z,75
2018-09-08T06:35:55.539Z,75
2018-09-08T06:36:36.062Z,75
2018-09-08T06:37:16.645Z,75
2018-09-08T06:37:57.054Z,75
2018-09-08T06:38:37.568Z,75
2018-09-08T06:39:18.077Z,75
2018-09-08T06:39:58.574Z,75
2018-09-08T06:40:39.051Z,75
2018-09-08T06:41:19.539Z,75
2018-09-08T06:42:00.061Z,75
2018-09-08T06:42:40.571Z,80
2018-09-08T06:43:21.080Z,80
2018-09-08T06:44:01.827Z,80
2018-09-08T06:44:42.244Z,80
2018-09-08T06:45:22.671Z,80
2018-09-08T06:46:03.168Z,80
2018-09-08T06:46:43.654Z,80
2018-09-08T06:47:24.146Z,80
2018-09-08T06:48:04.690Z,80
2018-09-08T06:48:45.329Z,80
2018-09-08T06:49:25.846Z,80
2018-09-08T06:50:06.359Z,80
2018-09-08T06:50:46.965Z,80
2018-09-08T06:51:27.464Z,80
2018-09-08T06:52:07.959Z,80
2018-09-08T06:52:48.529Z,80
2018-09-08T06:53:29.019Z,80
2018-09-08T06:54:09.555Z,85
2018-09-08T06:54:50.021Z,85
2018-09-08T06:55:30.534Z,85
2018-09-08T06:56:11.052Z,90
2018-09-08T06:56:51.744Z,90
2018-09-08T06:57:32.368Z,90
2018-09-08T06:58:12.878Z,90
2018-09-08T06:58:53.381Z,85
2018-09-08T06:59:33.830Z,85
2018-09-08T07:00:14.378Z,85
2018-09-08T07:00:54.929Z,85
2018-09-08T07:01:35.524Z,85
2018-09-08T07:02:16.025Z,90
2018-09-08T07:02:56.520Z,90
2018-09-08T07:03:37.086Z,100
2018-09-08T07:04:17.623Z,110
2018-09-08T07:04:58.072Z,120
2018-09-08T07:05:38.593Z,125
2018-09-08T07:06:19.162Z,130
2018-09-08T07:06:59.665Z,140
2018-09-08T07:07:40.202Z,140
2018-09-08T07:08:21.311Z,140
2018-09-08T07:10:54.928Z,140
2018-09-08T07:11:35.449Z,140
2018-09-08T07:12:16.015Z,140
2018-09-08T07:12:56.500Z,140
2018-09-08T07:13:37.687Z,145
2018-09-08T07:14:17.626Z,145
2018-09-08T07:14:58.175Z,150
2018-09-08T07:15:38.693Z,145
2018-09-08T07:16:19.369Z,145
2018-09-08T07:16:59.724Z,145
2018-09-08T07:17:40.209Z,145
2018-09-08T07:18:20.679Z,140
2018-09-08T07:19:01.180Z,140
2018-09-08T07:19:41.709Z,140
2018-09-08T07:20:22.181Z,140
2018-09-08T07:21:02.698Z,140
2018-09-08T07:21:43.231Z,140
2018-09-08T07:22:23.702Z,140
2018-09-08T07:24:36.986Z,135
2018-09-08T07:25:17.504Z,135
2018-09-08T07:25:58.042Z,135
2018-09-08T07:26:38.582Z,130
2018-09-08T07:27:19.093Z,130
2018-09-08T07:27:59.619Z,130
2018-09-08T07:28:40.103Z,130
2018-09-08T07:29:20.592Z,130
2018-09-08T07:30:01.101Z,130
2018-09-08T07:30:41.568Z,130
2018-09-08T07:31:22.078Z,130
2018-09-08T07:32:02.547Z,130
2018-09-08T07:32:43.028Z,130
2018-09-08T07:33:23.852Z,125
2018-09-08T07:34:04.213Z,125
2018-09-08T07:34:44.707Z,125
2018-09-08T07:35:25.880Z,125
2018-09-08T07:36:06.422Z,125
2018-09-08T07:36:46.929Z,125
2018-09-08T07:37:27.556Z,120
2018-09-08T07:38:07.974Z,120
2018-09-08T07:38:48.907Z,125
2018-09-08T07:39:29.388Z,120
2018-09-08T07:40:09.893Z,120
2018-09-08T07:40:50.407Z,120
2018-09-08T07:41:30.940Z,120
2018-09-08T07:42:11.429Z,115
2018-09-08T07:42:51.930Z,110
2018-09-08T07:43:32.424Z,110
2018-09-08T07:44:12.982Z,105
2018-09-08T07:44:53.535Z,105
2018-09-08T07:45:33.986Z,105
2018-09-08T07:46:14.511Z,105
2018-09-08T07:46:55.040Z,105
2018-09-08T07:47:35.525Z,105
2018-09-08T07:48:16.034Z,105
2018-09-08T07:48:56.596Z,110
2018-09-08T07:49:37.105Z,105
2018-09-08T07:50:17.618Z,100
2018-09-08T07:50:58.100Z,100
2018-09-08T07:51:38.578Z,100
2018-09-08T07:52:19.048Z,100
2018-09-08T07:52:59.579Z,100
2018-09-08T07:53:40.280Z,100
2018-09-08T07:54:20.725Z,100
2018-09-08T07:55:01.281Z,100
2018-09-08T07:55:41.737Z,95
2018-09-08T07:56:22.605Z,95
2018-09-08T07:57:03.113Z,95
2018-09-08T07:57:44.044Z,95
2018-09-08T07:58:24.541Z,95
2018-09-08T07:59:05.193Z,95
2018-09-08T07:59:45.697Z,95
2018-09-08T08:00:26.221Z,90
2018-09-08T08:01:06.995Z,90
2018-09-08T08:01:47.569Z,90
2018-09-08T08:02:27.951Z,90
2018-09-08T08:03:08.600Z,90
2018-09-08T08:03:49.473Z,90
2018-09-08T08:06:02.831Z,90
2018-09-08T08:06:43.357Z,90
2018-09-08T08:07:23.878Z,90
2018-09-08T08:08:04.344Z,90
2018-09-08T08:08:44.899Z,90
2018-09-08T08:09:25.414Z,90
2018-09-08T08:10:05.915Z,90
2018-09-08T08:10:46.451Z,90
2018-09-08T08:11:26.942Z,90
2018-09-08T08:12:07.538Z,90
2018-09-08T08:12:48.196Z,90
2018-09-08T08:13:29.032Z,90
2018-09-08T08:14:09.986Z,90
2018-09-08T08:14:50.505Z,90
2018-09-08T08:15:31.259Z,90
2018-09-08T08:16:11.822Z,90
2018-09-08T08:16:52.332Z,90
2018-09-08T08:17:32.840Z,90
2018-09-08T08:18:13.329Z,90
2018-09-08T08:18:54.164Z,90
2018-09-08T08:19:34.703Z,90
2018-09-08T08:20:15.258Z,90
2018-09-08T08:20:55.744Z,90
2018-09-08T08:21:36.545Z,90
2018-09-08T08:22:17.227Z,90
2018-09-08T08:22:58.015Z,90
2018-09-08T08:23:38.463Z,90
2018-09-08T08:24:18.979Z,90
2018-09-08T08:24:59.539Z,90
2018-09-08T08:25:40.535Z,90
2018-09-08T08:26:21.053Z,90
2018-09-08T08:27:01.593Z,90
2018-09-08T08:27:42.213Z,90
2018-09-08T08:28:22.762Z,90
2018-09-08T08:29:03.212Z,90
2018-09-08T08:29:44.407Z,90
2018-09-08T08:30:24.936Z,90
2018-09-08T08:31:05.557Z,90
2018-09-08T08:31:47.010Z,90
2018-09-08T08:32:29.585Z,90
2018-09-08T08:33:09.977Z,90
2018-09-08T08:33:50.481Z,90
2018-09-08T08:34:31.475Z,90
2018-09-08T08:35:12.082Z,90
2018-09-08T08:35:53.321Z,90
2018-09-08T08:36:33.828Z,90
2018-09-08T08:37:14.441Z,90
2018-09-08T08:37:54.787Z,90
2018-09-08T08:38:35.578Z,90
2018-09-08T08:39:16.085Z,90
2018-09-08T08:39:56.576Z,90
2018-09-08T08:40:37.282Z,90
2018-09-08T08:41:17.948Z,90
2018-09-08T08:41:58.290Z,90
2018-09-08T08:42:38.850Z,90
2018-09-08T08:43:19.532Z,90
2018-09-08T08:43:59.955Z,90
2018-09-08T08:44:40.605Z,90
2018-09-08T08:45:21.354Z,90
2018-09-08T08:46:02.524Z,90
2018-09-08T08:46:43.125Z,90
2018-09-08T08:47:23.636Z,90
2018-09-08T08:48:04.118Z,90
2018-09-08T08:48:44.594Z,90
2018-09-08T08:49:25.040Z,90
2018-09-08T08:50:05.611Z,95
2018-09-08T08:50:46.091Z,90
2018-09-08T08:51:26.572Z,90
2018-09-08T08:52:07.193Z,90
2018-09-08T08:52:47.603Z,90
2018-09-08T08:53:28.075Z,90
2018-09-08T08:54:08.593Z,90
2018-09-08T08:54:49.118Z,90
2018-09-08T08:55:29.606Z,90
2018-09-08T08:56:10.111Z,95
2018-09-08T08:56:50.630Z,90
2018-09-08T08:57:31.128Z,85
2018-09-08T08:58:12.841Z,85
2018-09-08T08:58:53.420Z,85
2018-09-08T08:59:33.935Z,85
2018-09-08T09:00:14.382Z,85
2018-09-08T09:00:54.859Z,85
2018-09-08T09:01:35.349Z,85
2018-09-08T09:02:15.860Z,85
2018-09-08T09:02:56.326Z,85
2018-09-08T09:03:37.099Z,85
2018-09-08T09:04:17.942Z,85
2018-09-08T09:04:58.667Z,85
2018-09-08T09:05:39.199Z,85
2018-09-08T09:06:19.736Z,85
2018-09-08T09:07:00.313Z,80
2018-09-08T09:07:40.943Z,80
2018-09-08T09:08:21.812Z,80
2018-09-08T09:09:02.078Z,80
2018-09-08T09:09:42.743Z,80
2018-09-08T09:10:23.237Z,80
2018-09-08T09:11:03.760Z,80
2018-09-08T09:11:44.218Z,80
2018-09-08T09:12:24.751Z,80
2018-09-08T09:13:05.478Z,80
2018-09-08T09:13:45.831Z,80
2018-09-08T09:14:26.375Z,80
2018-09-08T09:15:07.420Z,80
2018-09-08T09:15:47.332Z,80
2018-09-08T09:16:27.861Z,80
2018-09-08T09:17:08.382Z,80
2018-09-08T09:17:48.862Z,80
2018-09-08T09:18:29.895Z,80
2018-09-08T09:19:09.861Z,80
2018-09-08T09:19:50.446Z,80
2018-09-08T09:20:30.850Z,80
2018-09-08T09:21:11.330Z,80
2018-09-08T09:21:51.923Z,85
2018-09-08T09:22:32.492Z,80
2018-09-08T09:23:12.951Z,80
2018-09-08T09:23:53.778Z,85
2018-09-08T09:24:34.565Z,80
2018-09-08T09:25:14.665Z,80
2018-09-08T09:25:55.281Z,80
2018-09-08T09:26:35.761Z,80
2018-09-08T09:27:16.335Z,80
2018-09-08T09:27:56.756Z,80
2018-09-08T09:28:37.407Z,80
2018-09-08T09:29:17.908Z,80
2018-09-08T09:29:58.511Z,80
2018-09-08T09:30:38.877Z,80
2018-09-08T09:31:19.419Z,80
2018-09-08T09:31:59.857Z,80
2018-09-08T09:32:40.480Z,80
2018-09-08T09:33:20.909Z,80
2018-09-08T09:34:01.366Z,80
2018-09-08T09:34:41.874Z,80
2018-09-08T09:35:22.528Z,80
2018-09-08T09:36:03.002Z,80
2018-09-08T09:36:43.570Z,80
2018-09-08T09:37:24.123Z,80
2018-09-08T09:38:04.737Z,80
2018-09-08T09:38:45.183Z,80
2018-09-08T09:39:25.671Z,80
2018-09-08T09:40:06.224Z,80
2018-09-08T09:40:46.675Z,80
2018-09-08T09:41:27.242Z,80
2018-09-08T09:42:07.688Z,80
2018-09-08T09:42:48.204Z,80
2018-09-08T09:43:28.689Z,80
2018-09-08T09:44:09.278Z,80
2018-09-08T09:44:49.681Z,80
2018-09-08T09:45:30.159Z,80
2018-09-08T09:46:10.685Z,80
2018-09-08T09:46:51.331Z,80
2018-09-08T09:47:31.829Z,80
2018-09-08T09:48:12.437Z,80
2018-09-08T09:48:52.996Z,80
2018-09-08T09:49:33.503Z,80
2018-09-08T09:50:13.982Z,80
2018-09-08T09:50:54.498Z,80
2018-09-08T09:51:34.992Z,80
2018-09-08T09:52:15.499Z,80
2018-09-08T09:52:56.054Z,80
2018-09-08T09:53:36.611Z,80
2018-09-08T09:54:17.123Z,80
2018-09-08T09:54:57.609Z,80
2018-09-08T09:55:38.059Z,80
2018-09-08T09:56:18.733Z,80
2018-09-08T09:56:59.200Z,80
2018-09-08T09:57:39.689Z,80
2018-09-08T09:58:20.302Z,80
2018-09-08T09:59:00.798Z,80
2018-09-08T09:59:41.288Z,80
2018-09-08T10:00:21.840Z,80
2018-09-08T10:01:02.513Z,80
2018-09-08T10:01:42.999Z,80
2018-09-08T10:02:23.497Z,80
2018-09-08T10:03:04.104Z,80
2018-09-08T10:03:44.659Z,80